Aurora — ZCDW9 — position and weather

sailwx.info

Track history (hours):
 
Tides and Currents Weather Stations Pressure Air Temp Water Temp Dewpoint Dewpoint Depression Visibility Wind Speed Wind Dir Waves Ship Positions

Aurora (Bermuda)

Last reported at 2017-Nov-23 12:59 UTC. Time now 2017-Nov-24 09:34 UTC.
Position N 48°25' W 006°10'.

Length 271 m; draft 8.3 m.

Type: Ship. MMSI: 310555970.

Date/timePositionNaut miles runAvg speedWind from/ knotsBaromVisibWave heightAir tempDewpointWater temp
2017-Nov-23 12:59N 48°25' W 006°10'2117.4
2017-Nov-23 11:46N 48°44' W 005°55'517.6
2017-Nov-23 11:30N 48°48' W 005°52'917.0
2017-Nov-23 10:58N 48°56' W 005°44'816.6
2017-Nov-23 10:30N 48°59' W 005°34'816.4
2017-Nov-23 10:00N 49°03' W 005°22'815.3
2017-Nov-23 09:27N 49°06' W 005°11'714.8
2017-Nov-23 08:59N 49°09' W 005°01'914.3
2017-Nov-23 08:21N 49°14' W 004°49'5614.0
2017-Nov-23 04:21N 49°45' W 003°37'515.3
2017-Nov-23 04:00N 49°47' W 003°30'815.7
2017-Nov-23 03:30N 49°51' W 003°19'815.9
2017-Nov-23 03:00N 49°55' W 003°08'815.8
2017-Nov-23 02:30N 49°59' W 002°58'815.7
2017-Nov-23 02:00N 50°01' W 002°46'815.0
2017-Nov-23 01:30N 50°03' W 002°35'714.3
2017-Nov-23 01:00N 50°06' W 002°24'913.7
2017-Nov-23 00:23N 50°09' W 002°12'513.1
2017-Nov-23 00:00N 50°12' W 002°05'612.6
2017-Nov-22 23:30N 50°15' W 001°57'612.6
2017-Nov-22 23:00N 50°17' W 001°48'612.5
2017-Nov-22 22:30N 50°20' W 001°39'612.4
2017-Nov-22 22:00N 50°23' W 001°30'612.9
2017-Nov-22 21:30N 50°26' W 001°21'612.8
2017-Nov-22 21:00N 50°29' W 001°12'612.2
2017-Nov-22 20:30N 50°32' W 001°04'611.3
2017-Nov-22 20:00N 50°36' W 000°59'4 8.8
2017-Nov-22 19:31N 50°40' W 000°56'  
2017-Nov-20 05:00N 59°06' E 004°54'56218.2 020 / 181009.410.8 6.0 3.011.0
2017-Nov-18 22:10N 67°52' E 012°17'420.5
2017-Nov-18 22:00N 67°55' E 012°22'1020.1
2017-Nov-18 21:31N 68°03' E 012°37'1020.1
2017-Nov-18 21:00N 68°11' E 012°53'1020.0
2017-Nov-18 20:31N 68°18' E 013°11'1019.7
2017-Nov-18 20:00N 68°25' E 013°30'1019.7
2017-Nov-18 19:30N 68°34' E 013°45'918.9
2017-Nov-18 19:00N 68°42' E 013°58'1019.1
2017-Nov-18 18:29N 68°50' E 014°12'918.0
2017-Nov-18 18:00N 68°57' E 014°25'916.6
2017-Nov-18 17:30N 69°04' E 014°39'917.3
2017-Nov-18 17:00N 69°12' E 014°52'1114.5
2017-Nov-18 17:00N 69°12' E 014°54'715.1 090 / 26999.910.8 2.6-3.1 8.0
2017-Nov-18 16:30N 69°18' E 015°05'815.9
2017-Nov-18 16:00N 69°25' E 015°19'816.8
2017-Nov-18 15:30N 69°30' E 015°36'815.9
2017-Nov-18 15:00N 69°36' E 015°54'714.9
2017-Nov-18 14:30N 69°41' E 016°09'815.3
2017-Nov-18 14:00N 69°45' E 016°28'817.0
2017-Nov-18 13:30N 69°50' E 016°47'917.5
2017-Nov-18 13:00N 69°55' E 017°07'917.0
2017-Nov-18 12:30N 70°01' E 017°26'917.2
2017-Nov-18 12:00N 70°06' E 017°46'816.4
2017-Nov-18 11:30N 70°11' E 018°06'816.2
2017-Nov-18 11:00N 70°16' E 018°25'815.7
2017-Nov-18 10:30N 70°20' E 018°45'815.7
2017-Nov-18 10:00N 70°23' E 019°06'816.2
2017-Nov-18 09:31N 70°26' E 019°28'816.6
2017-Nov-18 09:00N 70°28' E 019°52'816.0
2017-Nov-18 08:30N 70°27' E 020°16'917.2
2017-Nov-18 08:00N 70°18' E 020°21'816.7
2017-Nov-18 07:30N 70°10' E 020°17'2 3.4
2017-Nov-18 07:00N 70°09' E 020°19'816.6
2017-Nov-18 06:30N 70°15' E 020°34'816.8
2017-Nov-18 06:00N 70°20' E 020°55'917.1
2017-Nov-18 05:30N 70°24' E 021°17'917.0
2017-Nov-18 05:00N 70°26' E 021°42'817.2
2017-Nov-18 04:30N 70°21' E 022°04'917.6
2017-Nov-18 04:00N 70°17' E 022°26'917.4
2017-Nov-18 03:30N 70°14' E 022°50'814.8
2017-Nov-18 02:59N 70°08' E 023°04'816.1
2017-Nov-18 02:30N 70°01' E 023°17'3 4.9
2017-Nov-18 01:59N 69°59' E 023°20'0 0.0
2017-Nov-18 01:29N 69°59' E 023°20'0 0.0
2017-Nov-18 00:59N 69°59' E 023°20'0 0.0
2017-Nov-18 00:29N 69°59' E 023°20'0 0.0
2017-Nov-17 23:59N 69°59' E 023°20'0 0.0
2017-Nov-17 23:29N 69°59' E 023°20'0 0.0
2017-Nov-17 22:59N 69°59' E 023°20'0 0.0
2017-Nov-17 22:29N 69°59' E 023°20'0 0.0
2017-Nov-17 21:59N 69°59' E 023°20'0 0.0
2017-Nov-17 21:29N 69°59' E 023°20'0 0.0
2017-Nov-17 20:59N 69°59' E 023°20'0 0.0
2017-Nov-17 19:50N 69°59' E 023°20'0 0.0
2017-Nov-17 19:20N 69°59' E 023°20'0 0.0
2017-Nov-17 18:38N 69°59' E 023°20'0 0.0
2017-Nov-17 18:29N 69°59' E 023°20'0 0.0
2017-Nov-17 17:47N 69°59' E 023°20'0 0.0
2017-Nov-17 17:29N 69°59' E 023°20'0 0.0
2017-Nov-17 16:56N 69°59' E 023°20'0 0.0
2017-Nov-17 16:26N 69°59' E 023°20'0 0.0
2017-Nov-17 15:59N 69°59' E 023°20'0 0.0
2017-Nov-17 15:29N 69°59' E 023°20'0 0.0
2017-Nov-17 14:53N 69°59' E 023°20'0 0.0
2017-Nov-17 14:29N 69°59' E 023°20'0 0.0
2017-Nov-17 13:53N 69°59' E 023°20'0 0.0
2017-Nov-17 13:23N 69°59' E 023°20'0 0.0
2017-Nov-17 12:59N 69°59' E 023°20'0 0.0
2017-Nov-17 12:29N 69°59' E 023°20'0 0.0
2017-Nov-17 11:59N 69°59' E 023°20'0 0.0
2017-Nov-17 11:29N 69°59' E 023°20'0 0.0
2017-Nov-17 10:59N 69°59' E 023°20'0 0.0
2017-Nov-17 10:23N 69°59' E 023°20'0 0.0
2017-Nov-17 09:59N 69°59' E 023°20'0 0.0
2017-Nov-17 09:29N 69°59' E 023°20'0 0.0
2017-Nov-17 08:59N 69°59' E 023°20'0 0.0
2017-Nov-17 08:29N 69°59' E 023°20'0 0.0
2017-Nov-17 06:38N 69°59' E 023°20'0 0.0
2017-Nov-17 06:29N 69°59' E 023°20'0 0.0
2017-Nov-17 05:59N 69°59' E 023°20'0 0.0
2017-Nov-17 05:20N 69°59' E 023°20'0 0.0
2017-Nov-17 03:47N 69°59' E 023°20'0 0.0
2017-Nov-17 03:29N 69°59' E 023°20'0 0.0
2017-Nov-17 02:59N 69°59' E 023°20'0 0.0
2017-Nov-17 02:29N 69°59' E 023°20'0 0.0
2017-Nov-17 01:59N 69°59' E 023°20'0 0.0
2017-Nov-17 01:29N 69°59' E 023°20'0 0.0
2017-Nov-17 00:59N 69°59' E 023°20'0 0.0
2017-Nov-17 00:29N 69°59' E 023°20'0 0.0
2017-Nov-16 23:59N 69°59' E 023°20'0 0.0
2017-Nov-16 23:29N 69°59' E 023°20'0 0.0
2017-Nov-16 22:59N 69°59' E 023°20'0 0.0
2017-Nov-16 22:29N 69°59' E 023°20'0 0.0
2017-Nov-16 21:59N 69°59' E 023°20'0 0.0
2017-Nov-16 21:29N 69°59' E 023°20'0 0.0
2017-Nov-16 20:59N 69°59' E 023°20'0 0.0
2017-Nov-16 20:29N 69°59' E 023°20'0 0.0
2017-Nov-16 19:59N 69°59' E 023°20'0 0.0
2017-Nov-16 19:29N 69°59' E 023°20'0 0.0
2017-Nov-16 18:41N 69°59' E 023°20'0 0.0
2017-Nov-16 17:53N 69°59' E 023°20'0 0.0
2017-Nov-16 17:29N 69°59' E 023°20'0 0.0
2017-Nov-16 16:59N 69°59' E 023°20'0 0.0
2017-Nov-16 16:23N 69°59' E 023°20'0 0.0
2017-Nov-16 15:59N 69°59' E 023°20'0 0.0
2017-Nov-16 15:29N 69°59' E 023°20'0 0.0
2017-Nov-16 14:59N 69°59' E 023°20'0 0.0
2017-Nov-16 14:29N 69°59' E 023°20'0 0.0
2017-Nov-16 13:56N 69°59' E 023°20'0 0.0
2017-Nov-16 13:29N 69°59' E 023°20'0 0.0
2017-Nov-16 12:59N 69°59' E 023°20'0 0.0
2017-Nov-16 12:29N 69°59' E 023°20'0 0.0
2017-Nov-16 12:00N 69°59' E 023°20'2 4.0
2017-Nov-16 11:30N 70°01' E 023°18'714.4
2017-Nov-16 11:00N 70°06' E 023°05'714.7
2017-Nov-16 10:30N 70°13' E 022°57'815.8
2017-Nov-16 10:00N 70°15' E 022°34'815.8
2017-Nov-16 09:30N 70°19' E 022°14'815.6
2017-Nov-16 09:00N 70°23' E 021°54'816.3
2017-Nov-16 08:30N 70°25' E 021°30'816.0
2017-Nov-16 08:00N 70°20' E 021°12'816.5
2017-Nov-16 07:30N 70°12' E 021°02'816.3
2017-Nov-16 07:00N 70°04' E 020°55'714.3
2017-Nov-16 06:30N 70°01' E 020°36'612.0
2017-Nov-16 06:00N 69°60' E 020°19'611.8
2017-Nov-16 05:29N 69°56' E 020°05'613.2
2017-Nov-16 05:00N 69°52' E 019°50'815.1
2017-Nov-16 04:30N 69°49' E 019°30'815.3
2017-Nov-16 04:00N 69°46' E 019°09'612.2
2017-Nov-16 03:30N 69°41' E 019°01'1 1.3
2017-Nov-16 02:58N 69°41' E 018°60'0 0.0
2017-Nov-16 02:28N 69°41' E 018°60'0 0.0
2017-Nov-16 01:58N 69°41' E 018°60'0 0.0
2017-Nov-16 01:28N 69°41' E 018°60'0 0.0
2017-Nov-16 00:58N 69°41' E 018°60'0 0.0
2017-Nov-16 00:28N 69°41' E 018°60'0 0.0
2017-Nov-15 23:58N 69°41' E 018°60'0 0.0
2017-Nov-15 23:28N 69°41' E 018°60'0 0.0
2017-Nov-15 22:58N 69°41' E 018°60'0 0.0
2017-Nov-15 22:28N 69°41' E 018°60'0 0.0
2017-Nov-15 21:58N 69°41' E 018°60'0 0.0
2017-Nov-15 21:28N 69°41' E 018°60'0 0.0
2017-Nov-15 20:58N 69°41' E 018°60'0 0.0
2017-Nov-15 20:28N 69°41' E 018°60'0 0.0
2017-Nov-15 19:58N 69°41' E 018°60'0 0.0
2017-Nov-15 19:28N 69°41' E 018°60'0 0.0
2017-Nov-15 18:58N 69°41' E 018°60'0 0.0
2017-Nov-15 18:28N 69°41' E 018°60'0 0.0
2017-Nov-15 17:58N 69°41' E 018°60'0 0.0
2017-Nov-15 17:28N 69°41' E 018°60'0 0.0
2017-Nov-15 16:58N 69°41' E 018°60'0 0.0
2017-Nov-15 16:28N 69°41' E 018°60'0 0.0
2017-Nov-15 15:58N 69°41' E 018°60'0 0.0
2017-Nov-15 15:28N 69°41' E 018°60'0 0.0
2017-Nov-15 14:58N 69°41' E 018°60'0 0.0
2017-Nov-15 14:28N 69°41' E 018°60'0 0.0
2017-Nov-15 13:58N 69°41' E 018°60'0 0.0
2017-Nov-15 13:28N 69°41' E 018°60'0 0.0
2017-Nov-15 12:58N 69°41' E 018°60'0 0.0
2017-Nov-15 12:28N 69°41' E 018°60'0 0.0
2017-Nov-15 11:58N 69°41' E 018°60'0 0.0
2017-Nov-15 11:28N 69°41' E 018°60'0 0.0
2017-Nov-15 10:58N 69°41' E 018°60'0 0.0
2017-Nov-15 10:28N 69°41' E 018°60'0 0.0
2017-Nov-15 09:58N 69°41' E 018°60'0 0.0
2017-Nov-15 09:28N 69°41' E 018°60'0 0.0
2017-Nov-15 08:58N 69°41' E 018°60'0 0.0
2017-Nov-15 08:28N 69°41' E 018°60'0 0.0
2017-Nov-15 07:58N 69°41' E 018°60'0 0.0
2017-Nov-15 07:28N 69°41' E 018°60'0 0.0
2017-Nov-15 07:00N 69°41' E 018°60'1 1.8
2017-Nov-15 06:31N 69°41' E 019°02'510.7
2017-Nov-15 06:00N 69°46' E 019°07'714.7
2017-Nov-15 05:30N 69°49' E 019°27'714.9
2017-Nov-15 05:00N 69°51' E 019°47'714.6
2017-Nov-15 04:30N 69°57' E 020°00'815.3
2017-Nov-15 04:00N 70°03' E 020°14'713.5
2017-Nov-15 03:30N 70°10' E 020°15'510.1
2017-Nov-15 03:00N 70°14' E 020°06'815.7
2017-Nov-15 02:29N 70°20' E 019°51'714.6
2017-Nov-15 02:00N 70°24' E 019°32'815.5
2017-Nov-15 01:30N 70°23' E 019°10'815.7
2017-Nov-15 01:00N 70°20' E 018°48'917.2
2017-Nov-15 00:30N 70°16' E 018°26'917.9
2017-Nov-15 00:00N 70°11' E 018°05'917.9
2017-Nov-14 23:30N 70°05' E 017°44'918.0
2017-Nov-14 23:00N 69°60' E 017°23'917.5
2017-Nov-14 22:30N 69°54' E 017°03'916.8
2017-Nov-14 21:59N 69°49' E 016°43'917.1
2017-Nov-14 21:30N 69°44' E 016°24'917.6
2017-Nov-14 21:00N 69°38' E 016°04'917.9
2017-Nov-14 20:30N 69°33' E 015°43'815.8
2017-Nov-14 20:00N 69°28' E 015°26'918.0
2017-Nov-14 19:30N 69°23' E 015°05'918.1
2017-Nov-14 19:00N 69°17' E 014°45'918.4
2017-Nov-14 18:30N 69°11' E 014°28'1019.0
2017-Nov-14 18:00N 69°03' E 014°12'919.1
2017-Nov-14 17:30N 68°55' E 013°55'919.0
2017-Nov-14 17:00N 68°48' E 013°39'1019.9
2017-Nov-14 16:30N 68°40' E 013°22'1020.3
2017-Nov-14 16:00N 68°32' E 013°05'1019.4
2017-Nov-14 15:30N 68°25' E 012°49'1019.2
2017-Nov-14 15:00N 68°17' E 012°33'918.9
2017-Nov-14 14:30N 68°09' E 012°18'  
Track history (hours):
 
Tides and Currents Weather Stations Pressure Air Temp Water Temp Dewpoint Dewpoint Depression Visibility Wind Speed Wind Dir Waves Ship Positions

Aurora (Bermuda)

Last reported at 2017-Nov-23 12:59 UTC. Time now 2017-Nov-24 09:34 UTC.
Position N 48°25' W 006°10'.

Length 271 m; draft 8.3 m.

Type: Ship. MMSI: 310555970.

Date/timePositionNaut miles runAvg speedWind from/ knotsBaromVisibWave heightAir tempDewpointWater temp
2017-Nov-23 12:59N 48°25' W 006°10'2117.4
2017-Nov-23 11:46N 48°44' W 005°55'517.6
2017-Nov-23 11:30N 48°48' W 005°52'917.0
2017-Nov-23 10:58N 48°56' W 005°44'816.6
2017-Nov-23 10:30N 48°59' W 005°34'816.4
2017-Nov-23 10:00N 49°03' W 005°22'815.3
2017-Nov-23 09:27N 49°06' W 005°11'714.8
2017-Nov-23 08:59N 49°09' W 005°01'914.3
2017-Nov-23 08:21N 49°14' W 004°49'5614.0
2017-Nov-23 04:21N 49°45' W 003°37'515.3
2017-Nov-23 04:00N 49°47' W 003°30'815.7
2017-Nov-23 03:30N 49°51' W 003°19'815.9
2017-Nov-23 03:00N 49°55' W 003°08'815.8
2017-Nov-23 02:30N 49°59' W 002°58'815.7
2017-Nov-23 02:00N 50°01' W 002°46'815.0
2017-Nov-23 01:30N 50°03' W 002°35'714.3
2017-Nov-23 01:00N 50°06' W 002°24'913.7
2017-Nov-23 00:23N 50°09' W 002°12'513.1
2017-Nov-23 00:00N 50°12' W 002°05'612.6
2017-Nov-22 23:30N 50°15' W 001°57'612.6
2017-Nov-22 23:00N 50°17' W 001°48'612.5
2017-Nov-22 22:30N 50°20' W 001°39'612.4
2017-Nov-22 22:00N 50°23' W 001°30'612.9
2017-Nov-22 21:30N 50°26' W 001°21'612.8
2017-Nov-22 21:00N 50°29' W 001°12'612.2
2017-Nov-22 20:30N 50°32' W 001°04'611.3
2017-Nov-22 20:00N 50°36' W 000°59'4 8.8
2017-Nov-22 19:31N 50°40' W 000°56'  
2017-Nov-20 05:00N 59°06' E 004°54'56218.2 020 / 181009.410.8 6.0 3.011.0
2017-Nov-18 22:10N 67°52' E 012°17'420.5
2017-Nov-18 22:00N 67°55' E 012°22'1020.1
2017-Nov-18 21:31N 68°03' E 012°37'1020.1
2017-Nov-18 21:00N 68°11' E 012°53'1020.0
2017-Nov-18 20:31N 68°18' E 013°11'1019.7
2017-Nov-18 20:00N 68°25' E 013°30'1019.7
2017-Nov-18 19:30N 68°34' E 013°45'918.9
2017-Nov-18 19:00N 68°42' E 013°58'1019.1
2017-Nov-18 18:29N 68°50' E 014°12'918.0
2017-Nov-18 18:00N 68°57' E 014°25'916.6
2017-Nov-18 17:30N 69°04' E 014°39'917.3
2017-Nov-18 17:00N 69°12' E 014°52'1114.5
2017-Nov-18 17:00N 69°12' E 014°54'715.1 090 / 26999.910.8 2.6-3.1 8.0
2017-Nov-18 16:30N 69°18' E 015°05'815.9
2017-Nov-18 16:00N 69°25' E 015°19'816.8
2017-Nov-18 15:30N 69°30' E 015°36'815.9
2017-Nov-18 15:00N 69°36' E 015°54'714.9
2017-Nov-18 14:30N 69°41' E 016°09'815.3
2017-Nov-18 14:00N 69°45' E 016°28'817.0
2017-Nov-18 13:30N 69°50' E 016°47'917.5
2017-Nov-18 13:00N 69°55' E 017°07'917.0
2017-Nov-18 12:30N 70°01' E 017°26'917.2
2017-Nov-18 12:00N 70°06' E 017°46'816.4
2017-Nov-18 11:30N 70°11' E 018°06'816.2
2017-Nov-18 11:00N 70°16' E 018°25'815.7
2017-Nov-18 10:30N 70°20' E 018°45'815.7
2017-Nov-18 10:00N 70°23' E 019°06'816.2
2017-Nov-18 09:31N 70°26' E 019°28'816.6
2017-Nov-18 09:00N 70°28' E 019°52'816.0
2017-Nov-18 08:30N 70°27' E 020°16'917.2
2017-Nov-18 08:00N 70°18' E 020°21'816.7
2017-Nov-18 07:30N 70°10' E 020°17'2 3.4
2017-Nov-18 07:00N 70°09' E 020°19'816.6
2017-Nov-18 06:30N 70°15' E 020°34'816.8
2017-Nov-18 06:00N 70°20' E 020°55'917.1
2017-Nov-18 05:30N 70°24' E 021°17'917.0
2017-Nov-18 05:00N 70°26' E 021°42'817.2
2017-Nov-18 04:30N 70°21' E 022°04'917.6
2017-Nov-18 04:00N 70°17' E 022°26'917.4
2017-Nov-18 03:30N 70°14' E 022°50'814.8
2017-Nov-18 02:59N 70°08' E 023°04'816.1
2017-Nov-18 02:30N 70°01' E 023°17'3 4.9
2017-Nov-18 01:59N 69°59' E 023°20'0 0.0
2017-Nov-18 01:29N 69°59' E 023°20'0 0.0
2017-Nov-18 00:59N 69°59' E 023°20'0 0.0
2017-Nov-18 00:29N 69°59' E 023°20'0 0.0
2017-Nov-17 23:59N 69°59' E 023°20'0 0.0
2017-Nov-17 23:29N 69°59' E 023°20'0 0.0
2017-Nov-17 22:59N 69°59' E 023°20'0 0.0
2017-Nov-17 22:29N 69°59' E 023°20'0 0.0
2017-Nov-17 21:59N 69°59' E 023°20'0 0.0
2017-Nov-17 21:29N 69°59' E 023°20'0 0.0
2017-Nov-17 20:59N 69°59' E 023°20'0 0.0
2017-Nov-17 19:50N 69°59' E 023°20'0 0.0
2017-Nov-17 19:20N 69°59' E 023°20'0 0.0
2017-Nov-17 18:38N 69°59' E 023°20'0 0.0
2017-Nov-17 18:29N 69°59' E 023°20'0 0.0
2017-Nov-17 17:47N 69°59' E 023°20'0 0.0
2017-Nov-17 17:29N 69°59' E 023°20'0 0.0
2017-Nov-17 16:56N 69°59' E 023°20'0 0.0
2017-Nov-17 16:26N 69°59' E 023°20'0 0.0
2017-Nov-17 15:59N 69°59' E 023°20'0 0.0
2017-Nov-17 15:29N 69°59' E 023°20'0 0.0
2017-Nov-17 14:53N 69°59' E 023°20'0 0.0
2017-Nov-17 14:29N 69°59' E 023°20'0 0.0
2017-Nov-17 13:53N 69°59' E 023°20'0 0.0
2017-Nov-17 13:23N 69°59' E 023°20'0 0.0
2017-Nov-17 12:59N 69°59' E 023°20'0 0.0
2017-Nov-17 12:29N 69°59' E 023°20'0 0.0
2017-Nov-17 11:59N 69°59' E 023°20'0 0.0
2017-Nov-17 11:29N 69°59' E 023°20'0 0.0
2017-Nov-17 10:59N 69°59' E 023°20'0 0.0
2017-Nov-17 10:23N 69°59' E 023°20'0 0.0
2017-Nov-17 09:59N 69°59' E 023°20'0 0.0
2017-Nov-17 09:29N 69°59' E 023°20'0 0.0
2017-Nov-17 08:59N 69°59' E 023°20'0 0.0
2017-Nov-17 08:29N 69°59' E 023°20'0 0.0
2017-Nov-17 06:38N 69°59' E 023°20'0 0.0
2017-Nov-17 06:29N 69°59' E 023°20'0 0.0
2017-Nov-17 05:59N 69°59' E 023°20'0 0.0
2017-Nov-17 05:20N 69°59' E 023°20'0 0.0
2017-Nov-17 03:47N 69°59' E 023°20'0 0.0
2017-Nov-17 03:29N 69°59' E 023°20'0 0.0
2017-Nov-17 02:59N 69°59' E 023°20'0 0.0
2017-Nov-17 02:29N 69°59' E 023°20'0 0.0
2017-Nov-17 01:59N 69°59' E 023°20'0 0.0
2017-Nov-17 01:29N 69°59' E 023°20'0 0.0
2017-Nov-17 00:59N 69°59' E 023°20'0 0.0
2017-Nov-17 00:29N 69°59' E 023°20'0 0.0
2017-Nov-16 23:59N 69°59' E 023°20'0 0.0
2017-Nov-16 23:29N 69°59' E 023°20'0 0.0
2017-Nov-16 22:59N 69°59' E 023°20'0 0.0
2017-Nov-16 22:29N 69°59' E 023°20'0 0.0
2017-Nov-16 21:59N 69°59' E 023°20'0 0.0
2017-Nov-16 21:29N 69°59' E 023°20'0 0.0
2017-Nov-16 20:59N 69°59' E 023°20'0 0.0
2017-Nov-16 20:29N 69°59' E 023°20'0 0.0
2017-Nov-16 19:59N 69°59' E 023°20'0 0.0
2017-Nov-16 19:29N 69°59' E 023°20'0 0.0
2017-Nov-16 18:41N 69°59' E 023°20'0 0.0
2017-Nov-16 17:53N 69°59' E 023°20'0 0.0
2017-Nov-16 17:29N 69°59' E 023°20'0 0.0
2017-Nov-16 16:59N 69°59' E 023°20'0 0.0
2017-Nov-16 16:23N 69°59' E 023°20'0 0.0
2017-Nov-16 15:59N 69°59' E 023°20'0 0.0
2017-Nov-16 15:29N 69°59' E 023°20'0 0.0
2017-Nov-16 14:59N 69°59' E 023°20'0 0.0
2017-Nov-16 14:29N 69°59' E 023°20'0 0.0
2017-Nov-16 13:56N 69°59' E 023°20'0 0.0
2017-Nov-16 13:29N 69°59' E 023°20'0 0.0
2017-Nov-16 12:59N 69°59' E 023°20'0 0.0
2017-Nov-16 12:29N 69°59' E 023°20'0 0.0
2017-Nov-16 12:00N 69°59' E 023°20'2 4.0
2017-Nov-16 11:30N 70°01' E 023°18'714.4
2017-Nov-16 11:00N 70°06' E 023°05'714.7
2017-Nov-16 10:30N 70°13' E 022°57'815.8
2017-Nov-16 10:00N 70°15' E 022°34'815.8
2017-Nov-16 09:30N 70°19' E 022°14'815.6
2017-Nov-16 09:00N 70°23' E 021°54'816.3
2017-Nov-16 08:30N 70°25' E 021°30'816.0
2017-Nov-16 08:00N 70°20' E 021°12'816.5
2017-Nov-16 07:30N 70°12' E 021°02'816.3
2017-Nov-16 07:00N 70°04' E 020°55'714.3
2017-Nov-16 06:30N 70°01' E 020°36'612.0
2017-Nov-16 06:00N 69°60' E 020°19'611.8
2017-Nov-16 05:29N 69°56' E 020°05'613.2
2017-Nov-16 05:00N 69°52' E 019°50'815.1
2017-Nov-16 04:30N 69°49' E 019°30'815.3
2017-Nov-16 04:00N 69°46' E 019°09'612.2
2017-Nov-16 03:30N 69°41' E 019°01'1 1.3
2017-Nov-16 02:58N 69°41' E 018°60'0 0.0
2017-Nov-16 02:28N 69°41' E 018°60'0 0.0
2017-Nov-16 01:58N 69°41' E 018°60'0 0.0
2017-Nov-16 01:28N 69°41' E 018°60'0 0.0
2017-Nov-16 00:58N 69°41' E 018°60'0 0.0
2017-Nov-16 00:28N 69°41' E 018°60'0 0.0
2017-Nov-15 23:58N 69°41' E 018°60'0 0.0
2017-Nov-15 23:28N 69°41' E 018°60'0 0.0
2017-Nov-15 22:58N 69°41' E 018°60'0 0.0
2017-Nov-15 22:28N 69°41' E 018°60'0 0.0
2017-Nov-15 21:58N 69°41' E 018°60'0 0.0
2017-Nov-15 21:28N 69°41' E 018°60'0 0.0
2017-Nov-15 20:58N 69°41' E 018°60'0 0.0
2017-Nov-15 20:28N 69°41' E 018°60'0 0.0
2017-Nov-15 19:58N 69°41' E 018°60'0 0.0
2017-Nov-15 19:28N 69°41' E 018°60'0 0.0
2017-Nov-15 18:58N 69°41' E 018°60'0 0.0
2017-Nov-15 18:28N 69°41' E 018°60'0 0.0
2017-Nov-15 17:58N 69°41' E 018°60'0 0.0
2017-Nov-15 17:28N 69°41' E 018°60'0 0.0
2017-Nov-15 16:58N 69°41' E 018°60'0 0.0
2017-Nov-15 16:28N 69°41' E 018°60'0 0.0
2017-Nov-15 15:58N 69°41' E 018°60'0 0.0
2017-Nov-15 15:28N 69°41' E 018°60'0 0.0
2017-Nov-15 14:58N 69°41' E 018°60'0 0.0
2017-Nov-15 14:28N 69°41' E 018°60'0 0.0
2017-Nov-15 13:58N 69°41' E 018°60'0 0.0
2017-Nov-15 13:28N 69°41' E 018°60'0 0.0
2017-Nov-15 12:58N 69°41' E 018°60'0 0.0
2017-Nov-15 12:28N 69°41' E 018°60'0 0.0
2017-Nov-15 11:58N 69°41' E 018°60'0 0.0
2017-Nov-15 11:28N 69°41' E 018°60'0 0.0
2017-Nov-15 10:58N 69°41' E 018°60'0 0.0
2017-Nov-15 10:28N 69°41' E 018°60'0 0.0
2017-Nov-15 09:58N 69°41' E 018°60'0 0.0
2017-Nov-15 09:28N 69°41' E 018°60'0 0.0
2017-Nov-15 08:58N 69°41' E 018°60'0 0.0
2017-Nov-15 08:28N 69°41' E 018°60'0 0.0
2017-Nov-15 07:58N 69°41' E 018°60'0 0.0
2017-Nov-15 07:28N 69°41' E 018°60'0 0.0
2017-Nov-15 07:00N 69°41' E 018°60'1 1.8
2017-Nov-15 06:31N 69°41' E 019°02'510.7
2017-Nov-15 06:00N 69°46' E 019°07'714.7
2017-Nov-15 05:30N 69°49' E 019°27'714.9
2017-Nov-15 05:00N 69°51' E 019°47'714.6
2017-Nov-15 04:30N 69°57' E 020°00'815.3
2017-Nov-15 04:00N 70°03' E 020°14'713.5
2017-Nov-15 03:30N 70°10' E 020°15'510.1
2017-Nov-15 03:00N 70°14' E 020°06'815.7
2017-Nov-15 02:29N 70°20' E 019°51'714.6
2017-Nov-15 02:00N 70°24' E 019°32'815.5
2017-Nov-15 01:30N 70°23' E 019°10'815.7
2017-Nov-15 01:00N 70°20' E 018°48'917.2
2017-Nov-15 00:30N 70°16' E 018°26'917.9
2017-Nov-15 00:00N 70°11' E 018°05'917.9
2017-Nov-14 23:30N 70°05' E 017°44'918.0
2017-Nov-14 23:00N 69°60' E 017°23'917.5
2017-Nov-14 22:30N 69°54' E 017°03'916.8
2017-Nov-14 21:59N 69°49' E 016°43'917.1
2017-Nov-14 21:30N 69°44' E 016°24'917.6
2017-Nov-14 21:00N 69°38' E 016°04'917.9
2017-Nov-14 20:30N 69°33' E 015°43'815.8
2017-Nov-14 20:00N 69°28' E 015°26'918.0
2017-Nov-14 19:30N 69°23' E 015°05'918.1
2017-Nov-14 19:00N 69°17' E 014°45'918.4
2017-Nov-14 18:30N 69°11' E 014°28'1019.0
2017-Nov-14 18:00N 69°03' E 014°12'919.1
2017-Nov-14 17:30N 68°55' E 013°55'919.0
2017-Nov-14 17:00N 68°48' E 013°39'1019.9
2017-Nov-14 16:30N 68°40' E 013°22'1020.3
2017-Nov-14 16:00N 68°32' E 013°05'1019.4
2017-Nov-14 15:30N 68°25' E 012°49'1019.2
2017-Nov-14 15:00N 68°17' E 012°33'918.9
2017-Nov-14 14:30N 68°09' E 012°18'  

Dump ship's entire track history